Time;durP1;ratioP1;P1;durP2;ratioP2;P2;SDS_P1;SDS_P2;PMS_P1;PMS_P2;Temp;Humidity;BMP_temperature;BMP_pressure;BME280_temperature;BME280_humidity;BME280_pressure;Samples;Min_cycle;Max_cycle;Signal;HPM_P1;HPM_P2
2024/02/08 00:01:12;;;;;;;15.05;7.07;;;;;;;-141.50;100.00;63355.56;5109424;27;20514;-79
2024/02/08 00:03:38;;;;;;;14.77;7.00;;;;;;;-141.50;100.00;63355.56;5120246;28;20508;-79
2024/02/08 00:06:05;;;;;;;21.05;7.35;;;;;;;-141.50;100.00;63355.56;5100461;28;20052;-79
2024/02/08 00:08:35;;;;;;;14.88;7.13;;;;;;;-141.50;100.00;63355.56;5124905;28;20067;-79
2024/02/08 00:11:02;;;;;;;15.55;6.72;;;;;;;-141.50;100.00;63355.56;5103133;28;20064;-79
2024/02/08 00:13:29;;;;;;;11.63;5.57;;;;;;;-141.50;100.00;63355.56;5088045;28;20049;-80
2024/02/08 00:15:56;;;;;;;14.50;6.85;;;;;;;-141.50;100.00;63355.56;5089942;28;20436;-80
2024/02/08 00:18:25;;;;;;;11.45;5.68;;;;;;;-141.50;100.00;63355.56;5084079;28;20056;-79
2024/02/08 00:20:52;;;;;;;14.18;6.25;;;;;;;-141.50;100.00;63355.56;5119410;28;20040;-80
2024/02/08 00:23:18;;;;;;;10.60;5.35;;;;;;;-141.50;100.00;63355.56;5124188;28;20569;-78
2024/02/08 00:25:50;;;;;;;11.93;4.80;;;;;;;-141.50;100.00;63355.56;5107936;28;20140;-79
2024/02/08 00:28:17;;;;;;;10.52;4.72;;;;;;;-141.50;100.00;63355.56;5105957;28;20055;-80
2024/02/08 00:30:45;;;;;;;10.55;5.03;;;;;;;-141.50;100.00;63355.56;5103440;28;20048;-80
2024/02/08 00:33:12;;;;;;;8.57;4.10;;;;;;;-141.50;100.00;63355.56;5119322;28;20060;-80
2024/02/08 00:35:39;;;;;;;9.20;4.25;;;;;;;-141.50;100.00;63355.56;5123445;28;20035;-79
2024/02/08 00:38:06;;;;;;;8.65;4.38;;;;;;;-141.50;100.00;63355.56;5100609;28;20105;-79
2024/02/08 00:40:32;;;;;;;9.63;4.65;;;;;;;-141.50;100.00;63355.56;5085239;28;20040;-80
2024/02/08 00:43:01;;;;;;;10.35;4.57;;;;;;;-141.50;100.00;63355.56;5104460;28;20070;-80
2024/02/08 00:45:34;;;;;;;8.88;4.20;;;;;;;-141.50;100.00;63355.56;5077408;28;20048;-78
2024/02/08 00:48:02;;;;;;;12.43;4.70;;;;;;;-141.50;100.00;63355.56;5099600;28;20052;-81
2024/02/08 00:50:29;;;;;;;8.32;4.47;;;;;;;-141.50;100.00;63355.56;5118764;28;20042;-81
2024/02/08 00:52:57;;;;;;;8.40;4.32;;;;;;;-141.50;100.00;63355.56;5104280;28;20056;-80
2024/02/08 00:55:24;;;;;;;9.38;4.47;;;;;;;-141.50;100.00;63355.56;5104857;28;20070;-82
2024/02/08 00:57:53;;;;;;;12.73;4.53;;;;;;;-141.50;100.00;63355.56;5103998;28;20111;-81
2024/02/08 01:00:20;;;;;;;9.05;4.38;;;;;;;-141.50;100.00;63355.56;5115301;28;20063;-80
2024/02/08 01:02:47;;;;;;;9.43;4.43;;;;;;;-141.50;100.00;63355.56;5118499;28;20055;-79
2024/02/08 01:05:13;;;;;;;8.35;4.32;;;;;;;-141.50;100.00;63355.56;5122825;28;20056;-79
2024/02/08 01:07:40;;;;;;;9.88;4.70;;;;;;;-141.50;100.00;63355.56;5121908;28;20047;-79
2024/02/08 01:10:07;;;;;;;11.02;5.22;;;;;;;-141.50;100.00;63355.56;5096489;28;20074;-80
2024/02/08 01:12:34;;;;;;;10.70;4.63;;;;;;;-141.50;100.00;63355.56;5123257;28;20096;-80
2024/02/08 01:15:02;;;;;;;13.82;4.75;;;;;;;-141.50;100.00;63355.56;5122339;28;20059;-79
2024/02/08 01:17:29;;;;;;;12.75;5.15;;;;;;;-141.50;100.00;63355.56;5099648;28;20374;-79
2024/02/08 01:20:00;;;;;;;13.52;5.13;;;;;;;-141.50;100.00;63355.56;5122653;28;20052;-79
2024/02/08 01:22:28;;;;;;;10.35;5.10;;;;;;;-141.50;100.00;63355.56;5071324;28;20048;-80
2024/02/08 01:24:58;;;;;;;8.75;4.22;;;;;;;-141.50;100.00;63355.56;5084367;28;20064;-80
2024/02/08 01:27:25;;;;;;;8.88;4.40;;;;;;;-141.50;100.00;63355.56;5104373;28;20047;-80
2024/02/08 01:29:59;;;;;;;10.25;4.30;;;;;;;-141.50;100.00;63355.56;5121247;28;20048;-78
2024/02/08 01:32:28;;;;;;;10.98;3.42;;;;;;;-141.50;100.00;63355.56;5120826;28;20043;-79
2024/02/08 01:34:55;;;;;;;14.77;4.70;;;;;;;-141.50;100.00;63355.56;5101966;28;20073;-80
2024/02/08 01:37:22;;;;;;;8.02;4.20;;;;;;;-141.50;100.00;63355.56;5120721;28;20259;-80
2024/02/08 01:39:49;;;;;;;7.57;3.85;;;;;;;-141.50;100.00;63355.56;5111605;28;20040;-79
2024/02/08 01:42:16;;;;;;;10.43;4.15;;;;;;;-141.50;100.00;63355.56;5095558;28;20058;-79
2024/02/08 01:44:47;;;;;;;8.27;4.28;;;;;;;-141.50;100.00;63355.56;5121198;28;20047;-79
2024/02/08 01:47:17;;;;;;;9.65;4.10;;;;;;;-141.50;100.00;63355.56;5120983;28;20862;-81
2024/02/08 01:49:47;;;;;;;9.60;4.88;;;;;;;-141.50;100.00;63355.56;5092269;28;20114;-79
2024/02/08 01:52:18;;;;;;;11.32;4.28;;;;;;;-141.50;100.00;63355.56;5087282;28;20051;-78
2024/02/08 01:54:49;;;;;;;11.73;4.15;;;;;;;-141.50;100.00;63355.56;5100964;28;20067;-80
2024/02/08 01:57:19;;;;;;;9.68;4.28;;;;;;;-141.50;100.00;63355.56;5111996;28;20089;-80
2024/02/08 01:59:52;;;;;;;8.48;4.05;;;;;;;-141.50;100.00;63355.56;5114095;28;20066;-78
2024/02/08 02:02:27;;;;;;;8.80;4.50;;;;;;;-141.50;100.00;63355.56;5120286;28;20130;-79
2024/02/08 02:04:57;;;;;;;9.57;4.40;;;;;;;-141.50;100.00;63355.56;5102140;28;20094;-79
2024/02/08 02:07:25;;;;;;;9.13;4.35;;;;;;;-141.50;100.00;63355.56;5122496;28;20051;-78
2024/02/08 02:09:52;;;;;;;9.52;4.57;;;;;;;-141.50;100.00;63355.56;5112524;27;20634;-79
2024/02/08 02:12:22;;;;;;;8.55;4.60;;;;;;;-141.50;100.00;63355.56;5116702;27;20055;-79
2024/02/08 02:14:53;;;;;;;8.70;4.38;;;;;;;-141.50;100.00;63355.56;5119569;28;20418;-79
2024/02/08 02:17:20;;;;;;;10.25;4.55;;;;;;;-141.50;100.00;63355.56;5120930;28;20437;-80
2024/02/08 02:19:52;;;;;;;14.32;4.47;;;;;;;-141.50;100.00;63355.56;5117825;28;20521;-80
2024/02/08 02:22:20;;;;;;;9.80;4.43;;;;;;;-141.50;100.00;63355.56;5109875;28;20228;-81
2024/02/08 02:24:49;;;;;;;9.40;4.25;;;;;;;-141.50;100.00;63355.56;5102179;28;20048;-78
2024/02/08 02:27:17;;;;;;;12.60;4.72;;;;;;;-141.50;100.00;63355.56;5101009;28;20078;-79
2024/02/08 02:29:45;;;;;;;8.70;4.10;;;;;;;-141.50;100.00;63355.56;5114683;28;20533;-79
2024/02/08 02:32:20;;;;;;;8.20;4.32;;;;;;;-141.50;100.00;63355.56;5109057;28;20055;-79
2024/02/08 02:34:53;;;;;;;12.20;4.38;;;;;;;-141.50;100.00;63355.56;5117682;28;20226;-81
2024/02/08 02:37:22;;;;;;;9.73;4.55;;;;;;;-141.50;100.00;63355.56;5122503;28;20079;-80
2024/02/08 02:39:49;;;;;;;9.00;4.65;;;;;;;-141.50;100.00;63355.56;5111686;28;20056;-79
2024/02/08 02:42:16;;;;;;;11.27;4.85;;;;;;;-141.50;100.00;63355.56;5118285;28;20054;-79
2024/02/08 02:44:43;;;;;;;11.65;4.78;;;;;;;-141.50;100.00;63355.56;5101288;28;20148;-78
2024/02/08 02:47:10;;;;;;;11.48;4.75;;;;;;;-141.50;100.00;63355.56;5109496;28;20058;-80
2024/02/08 02:49:37;;;;;;;8.27;4.70;;;;;;;-141.50;100.00;63355.56;5113301;28;20043;-81
2024/02/08 02:52:08;;;;;;;10.40;4.75;;;;;;;-141.50;100.00;63355.56;5118840;28;20051;-79
2024/02/08 02:54:36;;;;;;;10.80;5.07;;;;;;;-141.50;100.00;63355.56;5097232;28;20048;-80
2024/02/08 02:57:03;;;;;;;10.48;4.78;;;;;;;-141.50;100.00;63355.56;5096250;28;20105;-79
2024/02/08 02:59:30;;;;;;;11.98;5.35;;;;;;;-141.50;100.00;63355.56;5116711;28;20089;-79
2024/02/08 03:01:58;;;;;;;12.38;5.00;;;;;;;-141.50;100.00;63355.56;5116490;28;20473;-80
2024/02/08 03:04:33;;;;;;;9.15;5.22;;;;;;;-141.50;100.00;63355.56;5113183;28;20052;-82
2024/02/08 03:07:00;;;;;;;;;;;;;;;-141.50;100.00;63355.56;5098720;28;20039;-81
2024/02/08 03:09:31;;;;;;;9.80;4.82;;;;;;;-141.50;100.00;63355.56;5107570;28;19932;-80
2024/02/08 03:11:58;;;;;;;14.20;4.78;;;;;;;-141.50;100.00;63355.56;5120176;28;20047;-81
2024/02/08 03:14:27;;;;;;;9.90;5.00;;;;;;;-141.50;100.00;63355.56;5117276;28;20052;-79
2024/02/08 03:17:01;;;;;;;11.55;5.50;;;;;;;-141.50;100.00;63355.56;5100616;28;20046;-80
2024/02/08 03:19:29;;;;;;;10.75;5.38;;;;;;;-141.50;100.00;63355.56;5095909;28;20127;-79
2024/02/08 03:21:56;;;;;;;10.50;5.25;;;;;;;-141.50;100.00;63355.56;5094685;28;20040;-79
2024/02/08 03:24:24;;;;;;;9.68;4.93;;;;;;;-141.50;100.00;63355.56;5116079;28;20051;-80
2024/02/08 03:26:55;;;;;;;9.73;4.38;;;;;;;-141.50;100.00;63355.56;5111243;28;20048;-81
2024/02/08 03:29:22;;;;;;;11.13;5.03;;;;;;;-141.50;100.00;63355.56;5118360;28;20047;-81
2024/02/08 03:31:52;;;;;;;12.48;4.88;;;;;;;-141.50;100.00;63355.56;5119312;28;20052;-81
2024/02/08 03:34:23;;;;;;;9.82;4.70;;;;;;;-141.50;100.00;63355.56;5119543;28;20058;-79
2024/02/08 03:36:52;;;;;;;13.07;5.00;;;;;;;-141.50;100.00;63355.56;5077644;28;20135;-79
2024/02/08 03:39:25;;;;;;;7.90;4.57;;;;;;;-141.50;100.00;63355.56;5047249;28;20048;-80
2024/02/08 03:42:01;;;;;;;8.25;4.50;;;;;;;-141.50;100.00;63355.56;5115796;28;20063;-81
2024/02/08 03:44:33;;;;;;;8.15;4.20;;;;;;;-141.50;100.00;63355.56;5100487;28;20079;-81
2024/02/08 03:47:07;;;;;;;10.90;4.70;;;;;;;-141.50;100.00;63355.56;5102383;28;20047;-81
2024/02/08 03:49:51;;;;;;;;;;;;;;;-141.50;100.00;63355.56;5079926;28;20343;-82
2024/02/08 03:52:18;;;;;;;10.70;4.88;;;;;;;-141.50;100.00;63355.56;5100618;27;19920;-81
2024/02/08 03:54:45;;;;;;;11.10;5.25;;;;;;;-141.50;100.00;63355.56;5096496;28;20059;-81
2024/02/08 03:57:13;;;;;;;11.10;5.43;;;;;;;-141.50;100.00;63355.56;5116446;28;20048;-80
2024/02/08 03:59:41;;;;;;;9.15;4.75;;;;;;;-141.50;100.00;63355.56;5099671;28;20071;-80
2024/02/08 04:02:13;;;;;;;14.13;5.35;;;;;;;-141.50;100.00;63355.56;5116533;28;20100;-81
2024/02/08 04:04:59;;;;;;;11.32;5.07;;;;;;;-141.50;100.00;63355.56;5117450;28;20043;-82
2024/02/08 04:54:35;;;;;;;14.50;5.95;;;;;;;-141.50;100.00;63355.56;5116181;28;20048;-79
2024/02/08 04:57:03;;;;;;;12.85;6.03;;;;;;;-141.50;100.00;63355.56;5103300;28;20132;-79
2024/02/08 04:59:30;;;;;;;15.32;6.15;;;;;;;-141.50;100.00;63355.56;5098346;28;20101;-79
2024/02/08 05:01:57;;;;;;;15.30;6.00;;;;;;;-141.50;100.00;63355.56;5101781;28;20044;-78
2024/02/08 05:04:23;;;;;;;12.30;5.88;;;;;;;-141.50;100.00;63355.56;5120145;28;20170;-79
2024/02/08 05:06:50;;;;;;;15.60;6.72;;;;;;;-141.50;100.00;63355.56;5099791;28;20549;-78
2024/02/08 05:09:19;;;;;;;12.77;5.78;;;;;;;-141.50;100.00;63355.56;5093124;28;20056;-79
2024/02/08 05:11:50;;;;;;;13.50;6.05;;;;;;;-141.50;100.00;63355.56;5120210;28;20047;-79
2024/02/08 05:14:20;;;;;;;17.30;6.10;;;;;;;-141.50;100.00;63355.56;5100452;28;20408;-80
2024/02/08 05:16:47;;;;;;;11.82;5.50;;;;;;;-141.50;100.00;63355.56;5116527;28;20044;-78
2024/02/08 05:19:14;;;;;;;10.18;5.07;;;;;;;-141.50;100.00;63355.56;5099685;28;20059;-81
2024/02/08 05:21:41;;;;;;;13.38;5.65;;;;;;;-141.50;100.00;63355.56;5116585;28;20039;-80
2024/02/08 05:24:12;;;;;;;11.63;5.53;;;;;;;-141.50;100.00;63355.56;5117442;28;20044;-78
2024/02/08 05:26:40;;;;;;;12.35;4.95;;;;;;;-141.50;100.00;63355.56;5099064;28;20048;-81
2024/02/08 05:29:19;;;;;;;11.52;5.32;;;;;;;-141.50;100.00;63355.56;5113059;28;20048;-78
2024/02/08 05:31:47;;;;;;;11.10;5.43;;;;;;;-141.50;100.00;63355.56;5117603;28;20047;-77
2024/02/08 05:34:15;;;;;;;14.02;5.95;;;;;;;-141.50;100.00;63355.56;5103948;28;20066;-76
2024/02/08 05:36:46;;;;;;;11.25;5.00;;;;;;;-141.50;100.00;63355.56;5116836;28;20054;-78
2024/02/08 05:39:24;;;;;;;9.32;4.57;;;;;;;-141.50;100.00;63355.56;5095143;28;20060;-81
2024/02/08 05:41:55;;;;;;;12.32;5.40;;;;;;;-141.50;100.00;63355.56;5099067;28;20048;-77
2024/02/08 05:44:29;;;;;;;13.65;4.82;;;;;;;-141.50;100.00;63355.56;5115355;28;20104;-79
2024/02/08 05:46:57;;;;;;;12.43;5.25;;;;;;;-141.50;100.00;63355.56;5106231;28;20063;-79
2024/02/08 05:49:25;;;;;;;12.20;5.40;;;;;;;-141.50;100.00;63355.56;5095449;28;20472;-81
2024/02/08 05:51:54;;;;;;;10.68;4.82;;;;;;;-141.50;100.00;63355.56;5104555;28;20047;-81
2024/02/08 05:54:31;;;;;;;13.80;5.15;;;;;;;-141.50;100.00;63355.56;5073188;28;20143;-80
2024/02/08 05:57:02;;;;;;;12.68;5.72;;;;;;;-141.50;100.00;63355.56;5076774;28;20094;-80
2024/02/08 05:59:31;;;;;;;12.85;5.60;;;;;;;-141.50;100.00;63355.56;5095738;28;20047;-81
2024/02/08 06:01:59;;;;;;;11.77;5.05;;;;;;;-141.50;100.00;63355.56;5076600;28;20058;-80
2024/02/08 06:04:34;;;;;;;11.90;5.38;;;;;;;-141.50;100.00;63355.56;5078228;28;20036;-80
2024/02/08 06:07:05;;;;;;;12.23;5.07;;;;;;;-141.50;100.00;63355.56;5065933;28;20055;-84
2024/02/08 06:09:47;;;;;;;10.98;5.07;;;;;;;-141.50;100.00;63355.56;5084438;28;20048;-79
2024/02/08 06:12:28;;;;;;;13.55;6.07;;;;;;;-141.50;100.00;63355.56;5114935;28;20051;-79
2024/02/08 06:14:58;;;;;;;12.95;5.88;;;;;;;-141.50;100.00;63355.56;5120558;28;20044;-79
2024/02/08 06:17:32;;;;;;;13.77;5.28;;;;;;;-141.50;100.00;63355.56;5099468;28;20055;-80
2024/02/08 06:20:08;;;;;;;13.35;5.70;;;;;;;-141.50;100.00;63355.56;5111160;28;20050;-80
2024/02/08 06:22:39;;;;;;;16.42;5.55;;;;;;;-141.50;100.00;63355.56;5089819;28;20289;-79
2024/02/08 06:26:27;;;;;;;12.38;5.85;;;;;;;-141.50;100.00;63355.56;5088855;28;20101;-80
2024/02/08 06:27:58;;;;;;;13.32;5.95;;;;;;;-141.50;100.00;63355.56;5082731;28;20071;-81
2024/02/08 06:30:30;;;;;;;12.48;5.75;;;;;;;-141.50;100.00;63355.56;5071953;28;20081;-79
2024/02/08 06:33:07;;;;;;;15.25;5.97;;;;;;;-141.50;100.00;63355.56;5093085;28;20052;-79
2024/02/08 06:35:38;;;;;;;11.73;5.40;;;;;;;-141.50;100.00;63355.56;5089154;28;20048;-77
2024/02/08 06:38:13;;;;;;;14.63;5.90;;;;;;;-141.50;100.00;63355.56;5089246;28;20530;-78
2024/02/08 06:46:09;;;;;;;11.93;5.10;;;;;;;-141.50;100.00;63355.56;5105210;28;20142;-79
2024/02/08 07:38:09;;;;;;;12.70;5.07;;;;;;;-141.50;100.00;63355.56;5089131;28;20052;-79
2024/02/08 07:40:35;;;;;;;12.05;5.38;;;;;;;-141.50;100.00;63355.56;5100787;28;20051;-79
2024/02/08 07:45:47;;;;;;;8.65;4.50;;;;;;;-141.50;100.00;63355.56;5104143;28;20051;-79
2024/02/08 07:48:37;;;;;;;13.90;5.43;;;;;;;-141.50;100.00;63355.56;5072759;28;20079;-79
2024/02/08 07:51:03;;;;;;;12.20;4.50;;;;;;;-141.50;100.00;63355.56;5096911;28;20056;-78
2024/02/08 07:53:45;;;;;;;10.48;4.93;;;;;;;-141.50;100.00;63355.56;5093478;28;20106;-77
2024/02/08 07:58:50;;;;;;;13.75;5.18;;;;;;;-141.50;100.00;63355.56;5092549;27;20048;-78
2024/02/08 08:01:20;;;;;;;11.35;4.82;;;;;;;-141.50;100.00;63355.56;5079113;28;20082;-77
2024/02/08 08:03:49;;;;;;;15.52;5.35;;;;;;;-141.50;100.00;63355.56;5060524;28;20109;-79
2024/02/08 08:06:16;;;;;;;12.38;5.40;;;;;;;-141.50;100.00;63355.56;5114104;28;20055;-78
2024/02/08 08:08:54;;;;;;;11.75;4.93;;;;;;;-141.50;100.00;63355.56;5080384;28;20051;-80
2024/02/08 08:11:25;;;;;;;12.10;5.78;;;;;;;-141.50;100.00;63355.56;5074133;28;20071;-80
2024/02/08 08:15:04;;;;;;;12.80;5.00;;;;;;;-141.50;100.00;63355.56;5117541;28;20395;-78
2024/02/08 08:17:07;;;;;;;13.20;5.82;;;;;;;-141.50;100.00;63355.56;5104187;28;20060;-78
2024/02/08 08:19:38;;;;;;;13.82;5.50;;;;;;;-141.50;100.00;63355.56;5093362;28;21732;-79
2024/02/08 08:22:18;;;;;;;11.90;5.95;;;;;;;-141.50;100.00;63355.56;5077121;28;20056;-80
2024/02/08 08:27:47;;;;;;;14.45;5.68;;;;;;;-141.50;100.00;63355.56;5082026;28;20520;-78
2024/02/08 08:30:27;;;;;;;13.07;5.82;;;;;;;-141.50;100.00;63355.56;5104066;28;20059;-77
2024/02/08 08:33:07;;;;;;;13.18;6.03;;;;;;;-141.50;100.00;63355.56;5102860;28;20074;-79
2024/02/08 08:40:48;;;;;;;10.85;5.20;;;;;;;-141.50;100.00;63355.56;5113557;28;20055;-77
2024/02/08 08:43:19;;;;;;;10.20;4.65;;;;;;;-141.50;100.00;63355.56;5083547;28;20071;-78
2024/02/08 08:45:59;;;;;;;10.32;4.70;;;;;;;-141.50;100.00;63355.56;5083178;28;20494;-79
2024/02/08 08:48:31;;;;;;;11.10;4.97;;;;;;;-141.50;100.00;63355.56;5110229;28;20071;-80
2024/02/08 08:51:10;;;;;;;10.00;4.60;;;;;;;-141.50;100.00;63355.56;5082414;28;20064;-80
2024/02/08 08:53:44;;;;;;;11.35;4.45;;;;;;;-141.50;100.00;63355.56;5110481;28;20048;-80
2024/02/08 08:56:12;;;;;;;9.52;4.40;;;;;;;-141.50;100.00;63355.56;5085738;28;20056;-78
2024/02/08 08:58:40;;;;;;;10.10;4.22;;;;;;;-141.50;100.00;63355.56;5079709;28;20040;-78
2024/02/08 09:01:18;;;;;;;9.68;4.68;;;;;;;-141.50;100.00;63355.56;5073786;28;20205;-79
2024/02/08 09:03:55;;;;;;;8.02;3.80;;;;;;;-141.50;100.00;63355.56;5084807;28;20056;-80
2024/02/08 09:06:25;;;;;;;7.00;3.83;;;;;;;-141.50;100.00;63355.56;5074735;28;20150;-79
2024/02/08 09:08:56;;;;;;;7.32;3.38;;;;;;;-141.50;100.00;63355.56;5067767;28;20083;-79
2024/02/08 09:11:27;;;;;;;8.70;3.92;;;;;;;-141.50;100.00;63355.56;5080123;28;20056;-78
2024/02/08 09:13:55;;;;;;;10.23;4.15;;;;;;;-141.50;100.00;63355.56;5103947;28;20052;-78
2024/02/08 09:19:04;;;;;;;7.15;3.47;;;;;;;-141.50;100.00;63355.56;5090740;28;20044;-80
2024/02/08 09:21:33;;;;;;;7.18;3.85;;;;;;;-141.50;100.00;63355.56;5104159;28;20051;-80
2024/02/08 09:24:05;;;;;;;7.43;3.67;;;;;;;-141.50;100.00;63355.56;5093390;28;20275;-79
2024/02/08 09:29:24;;;;;;;9.35;4.30;;;;;;;-141.50;100.00;63355.56;5107924;28;20961;-78
2024/02/08 09:32:14;;;;;;;10.43;4.68;;;;;;;-141.50;100.00;63355.56;5108569;28;20044;-77
2024/02/08 09:34:42;;;;;;;11.73;4.13;;;;;;;-141.50;100.00;63355.56;5098597;28;20078;-78
2024/02/08 09:37:13;;;;;;;13.93;4.95;;;;;;;-141.50;100.00;63355.56;5113272;28;20055;-79
2024/02/08 09:42:29;;;;;;;13.65;5.13;;;;;;;-141.50;100.00;63355.56;5093035;28;20085;-81
2024/02/08 09:47:51;;;;;;;;;;;;;;;-141.50;100.00;63355.56;5093923;28;20498;-78
2024/02/08 09:50:31;;;;;;;16.70;5.68;;;;;;;-141.50;100.00;63355.56;5112907;28;20176;-80
2024/02/08 09:53:15;;;;;;;12.43;5.07;;;;;;;-141.50;100.00;63355.56;5108057;28;20580;-78
2024/02/08 09:55:48;;;;;;;10.82;4.35;;;;;;;-141.50;100.00;63355.56;5115264;28;20051;-78
2024/02/08 09:58:31;;;;;;;22.48;5.82;;;;;;;-141.50;100.00;63355.56;5109241;28;20059;-78
2024/02/08 10:01:30;;;;;;;17.77;5.85;;;;;;;-141.50;100.00;63355.56;5085896;28;20078;-78
2024/02/08 10:04:04;;;;;;;18.30;5.60;;;;;;;-141.50;100.00;63355.56;5104211;28;20051;-79
2024/02/08 10:06:41;;;;;;;17.35;5.70;;;;;;;-141.50;100.00;63355.56;5086734;28;20052;-76
2024/02/08 10:09:34;;;;;;;18.13;5.22;;;;;;;-141.50;100.00;63355.56;5098423;28;20476;-78
2024/02/08 10:11:59;;;;;;;16.30;5.30;;;;;;;-141.50;100.00;63355.56;5092779;28;20498;-77
2024/02/08 10:14:32;;;;;;;17.02;5.57;;;;;;;-141.50;100.00;63355.56;5110875;28;20489;-77
2024/02/08 10:17:24;;;;;;;15.02;5.53;;;;;;;-141.50;100.00;63355.56;5117998;27;20146;-77
2024/02/08 10:20:32;;;;;;;14.00;4.95;;;;;;;-141.50;100.00;63355.56;5110463;27;20059;-78
2024/02/08 10:22:53;;;;;;;14.40;5.55;;;;;;;-141.50;100.00;63355.56;5106179;28;20096;-79
2024/02/08 10:28:09;;;;;;;15.60;5.75;;;;;;;-141.50;100.00;63355.56;5109786;28;20060;-77
2024/02/08 10:30:37;;;;;;;14.07;4.95;;;;;;;-141.50;100.00;63355.56;5113800;28;20134;-79
2024/02/08 10:33:14;;;;;;;16.30;5.90;;;;;;;-141.50;100.00;63355.56;5114862;28;20052;-79
2024/02/08 10:35:42;;;;;;;19.92;7.05;;;;;;;-141.50;100.00;63355.56;5118575;27;20050;-80
2024/02/08 10:38:29;;;;;;;22.40;7.05;;;;;;;-141.50;100.00;63355.56;5115245;28;20060;-79
2024/02/08 10:40:58;;;;;;;18.85;7.05;;;;;;;-141.50;100.00;63355.56;5092253;28;20093;-80
2024/02/08 10:43:25;;;;;;;20.92;6.18;;;;;;;-141.50;100.00;63355.56;5113358;28;20128;-80
2024/02/08 10:45:54;;;;;;;23.63;7.28;;;;;;;-141.50;100.00;63355.56;5102577;28;20498;-80
2024/02/08 10:48:23;;;;;;;18.25;5.78;;;;;;;-141.50;100.00;63355.56;5092358;28;20578;-78
2024/02/08 10:50:50;;;;;;;20.30;6.28;;;;;;;-141.50;100.00;63355.56;5093547;28;20097;-79
2024/02/08 10:53:43;;;;;;;23.73;6.40;;;;;;;-141.50;100.00;63355.56;5109222;28;20351;-79
2024/02/08 10:56:17;;;;;;;22.00;6.38;;;;;;;-141.50;100.00;63355.56;5112488;28;20078;-79
2024/02/08 10:58:55;;;;;;;21.65;5.90;;;;;;;-141.50;100.00;63355.56;5090197;28;20049;-79
2024/02/08 11:01:33;;;;;;;19.15;6.38;;;;;;;-141.50;100.00;63355.56;5107592;28;20122;-80
2024/02/08 11:04:28;;;;;;;18.77;5.85;;;;;;;-141.50;100.00;63355.56;5107285;28;20318;-80
2024/02/08 11:07:16;;;;;;;25.00;7.20;;;;;;;-141.50;100.00;63355.56;5087723;28;20037;-79
2024/02/08 11:09:44;;;;;;;22.27;7.05;;;;;;;-141.50;100.00;63355.56;5089386;28;20126;-80
2024/02/08 11:12:21;;;;;;;24.10;6.25;;;;;;;-141.50;100.00;63355.56;5094057;28;20055;-79
2024/02/08 11:14:56;;;;;;;19.45;6.03;;;;;;;-141.50;100.00;63355.56;5084945;28;20053;-80
2024/02/08 11:17:32;;;;;;;17.80;6.32;;;;;;;-141.50;100.00;63355.56;5114818;28;20055;-79
2024/02/08 11:20:03;;;;;;;22.85;6.70;;;;;;;-141.50;100.00;63355.56;5087430;28;20169;-79
2024/02/08 11:22:40;;;;;;;20.40;6.50;;;;;;;-141.50;100.00;63355.56;5088773;28;20096;-80
2024/02/08 11:25:33;;;;;;;17.77;6.20;;;;;;;-141.50;100.00;63355.56;5107658;28;20051;-79
2024/02/08 11:28:17;;;;;;;24.50;7.43;;;;;;;-141.50;100.00;63355.56;5106744;28;20050;-80
2024/02/08 11:30:53;;;;;;;19.73;6.30;;;;;;;-141.50;100.00;63355.56;5108883;28;20044;-80
2024/02/08 11:33:32;;;;;;;17.15;5.93;;;;;;;-141.50;100.00;63355.56;5109678;28;20083;-80
2024/02/08 11:36:11;;;;;;;21.00;5.95;;;;;;;-141.50;100.00;63355.56;5105601;28;20104;-80
2024/02/08 11:39:26;;;;;;;26.05;7.28;;;;;;;-141.50;100.00;63355.56;5096048;28;20065;-79
2024/02/08 11:41:31;;;;;;;19.15;6.85;;;;;;;-141.50;100.00;63355.56;5110139;28;20082;-80
2024/02/08 11:44:02;;;;;;;17.75;6.22;;;;;;;-141.50;100.00;63355.56;5085501;28;20072;-79
2024/02/08 11:46:45;;;;;;;17.70;6.22;;;;;;;-141.50;100.00;63355.56;5082452;28;20120;-80
2024/02/08 11:49:16;;;;;;;15.48;6.05;;;;;;;-141.50;100.00;63355.56;5079052;28;20534;-79
2024/02/08 11:51:48;;;;;;;13.80;5.70;;;;;;;-141.50;100.00;63355.56;5096959;28;20105;-79
2024/02/08 11:54:28;;;;;;;14.63;5.72;;;;;;;-141.50;100.00;63355.56;5074206;28;20052;-80
2024/02/08 11:57:03;;;;;;;18.13;6.32;;;;;;;-141.50;100.00;63355.56;5107497;28;20052;-79
2024/02/08 11:59:37;;;;;;;14.65;5.20;;;;;;;-141.50;100.00;63355.56;5099978;28;20086;-81
2024/02/08 12:02:10;;;;;;;15.00;5.43;;;;;;;-141.50;100.00;63355.56;5086514;28;20040;-80
2024/02/08 12:04:37;;;;;;;15.27;5.78;;;;;;;-141.50;100.00;63355.56;5093872;28;20067;-81
2024/02/08 12:07:07;;;;;;;15.93;5.97;;;;;;;-141.50;100.00;63355.56;5087176;28;20059;-78
2024/02/08 12:09:35;;;;;;;15.82;5.15;;;;;;;-141.50;100.00;63355.56;5109454;28;20066;-80
2024/02/08 12:12:03;;;;;;;18.05;5.75;;;;;;;-141.50;100.00;63355.56;5081560;28;20056;-77
2024/02/08 12:14:30;;;;;;;13.95;5.28;;;;;;;-141.50;100.00;63355.56;5112174;28;20051;-80
2024/02/08 12:16:57;;;;;;;15.95;5.90;;;;;;;-141.50;100.00;63355.56;5075967;28;20071;-81
2024/02/08 12:19:27;;;;;;;14.32;5.35;;;;;;;-141.50;100.00;63355.56;5073043;28;20051;-80
2024/02/08 12:21:59;;;;;;;16.75;6.00;;;;;;;-141.50;100.00;63355.56;5093130;28;20077;-79
2024/02/08 12:24:31;;;;;;;11.93;5.32;;;;;;;-141.50;100.00;63355.56;5113500;28;20046;-79
2024/02/08 12:27:12;;;;;;;13.38;5.47;;;;;;;-141.50;100.00;63355.56;5112296;28;20066;-79
2024/02/08 12:29:50;;;;;;;15.25;6.22;;;;;;;-141.50;100.00;63355.56;5105790;28;20071;-80
2024/02/08 12:32:17;;;;;;;13.53;5.37;;;;;;;-141.50;100.00;63355.56;5112672;28;20081;-80
2024/02/08 12:34:47;;;;;;;13.65;5.10;;;;;;;-141.50;100.00;63355.56;5093291;28;20075;-79
2024/02/08 12:37:19;;;;;;;12.38;5.30;;;;;;;-141.50;100.00;63355.56;5111489;28;20052;-81
2024/02/08 12:39:49;;;;;;;11.13;4.65;;;;;;;-141.50;100.00;63355.56;5078441;28;20059;-79
2024/02/08 12:42:18;;;;;;;13.10;4.80;;;;;;;-141.50;100.00;63355.56;5094741;28;20107;-81
2024/02/08 12:44:49;;;;;;;9.90;4.45;;;;;;;-141.50;100.00;63355.56;5110890;28;20104;-80
2024/02/08 12:47:17;;;;;;;10.43;4.05;;;;;;;-141.50;100.00;63355.56;5094318;28;20065;-80
2024/02/08 12:49:46;;;;;;;12.77;4.32;;;;;;;-141.50;100.00;63355.56;5117059;28;20347;-81
2024/02/08 12:52:15;;;;;;;9.52;4.03;;;;;;;-141.50;100.00;63355.56;5109378;28;20134;-83
2024/02/08 12:54:52;;;;;;;11.82;4.68;;;;;;;-141.50;100.00;63355.56;5110652;28;20054;-81
2024/02/08 12:57:21;;;;;;;9.38;4.47;;;;;;;-141.50;100.00;63355.56;5112785;28;20063;-81
2024/02/08 12:59:47;;;;;;;10.68;4.15;;;;;;;-141.50;100.00;63355.56;5109089;28;20064;-80
2024/02/08 13:02:18;;;;;;;18.40;5.30;;;;;;;-141.50;100.00;63355.56;5093309;28;20605;-80
2024/02/08 13:04:48;;;;;;;13.70;5.13;;;;;;;-141.50;100.00;63355.56;5090727;28;20074;-80
2024/02/08 13:07:17;;;;;;;11.73;5.00;;;;;;;-141.50;100.00;63355.56;5095284;28;20055;-80
2024/02/08 13:09:45;;;;;;;14.05;5.95;;;;;;;-141.50;100.00;63355.56;5097766;28;20087;-80
2024/02/08 13:12:19;;;;;;;12.68;5.03;;;;;;;-141.50;100.00;63355.56;5088646;28;20051;-80
2024/02/08 13:14:49;;;;;;;11.75;4.93;;;;;;;-141.50;100.00;63355.56;5099587;28;20138;-81
2024/02/08 13:17:19;;;;;;;12.40;5.13;;;;;;;-141.50;100.00;63355.56;5106843;28;20071;-81
2024/02/08 13:19:55;;;;;;;14.15;5.47;;;;;;;-141.50;100.00;63355.56;5107797;28;20134;-79
2024/02/08 13:22:31;;;;;;;15.13;4.78;;;;;;;-141.50;100.00;63355.56;5090248;28;20075;-79
2024/02/08 13:24:59;;;;;;;12.25;5.30;;;;;;;-141.50;100.00;63355.56;5107232;28;20083;-81
2024/02/08 13:27:28;;;;;;;11.55;4.47;;;;;;;-141.50;100.00;63355.56;5106804;28;20052;-80
2024/02/08 13:29:59;;;;;;;12.52;5.13;;;;;;;-141.50;100.00;63355.56;5107105;28;20059;-80
2024/02/08 13:32:31;;;;;;;15.60;5.35;;;;;;;-141.50;100.00;63355.56;5113375;28;20048;-80
2024/02/08 13:35:00;;;;;;;12.88;5.25;;;;;;;-141.50;100.00;63355.56;5076343;28;20273;-80